Time;durP1;ratioP1;P1;durP2;ratioP2;P2;SDS_P1;SDS_P2;PMS_P1;PMS_P2;Temp;Humidity;BMP_temperature;BMP_pressure;BME280_temperature;BME280_humidity;BME280_pressure;Samples;Min_cycle;Max_cycle;Signal;HPM_P1;HPM_P2
2023/06/20 00:01:49;;;;;;;11.38;7.03;;;21.10;95.90;;;;;;4996676;28;20042;-50
2023/06/20 00:04:14;;;;;;;11.10;7.68;;;21.10;96.10;;;;;;4994229;28;20042;-48
2023/06/20 00:06:40;;;;;;;11.88;7.10;;;21.10;96.20;;;;;;5011264;28;20452;-49
2023/06/20 00:09:06;;;;;;;9.43;7.10;;;21.10;96.30;;;;;;5011699;28;20064;-50
2023/06/20 00:11:31;;;;;;;12.23;7.50;;;21.10;96.40;;;;;;5011576;28;20494;-51
2023/06/20 00:13:57;;;;;;;10.45;7.45;;;21.00;96.60;;;;;;4990736;28;20085;-49
2023/06/20 00:16:24;;;;;;;9.70;7.30;;;21.00;96.70;;;;;;4992008;28;20045;-48
2023/06/20 00:18:53;;;;;;;11.68;6.97;;;21.00;96.90;;;;;;4992044;28;20045;-49
2023/06/20 00:21:25;;;;;;;9.75;7.18;;;21.00;97.00;;;;;;5007771;28;20046;-51
2023/06/20 00:23:52;;;;;;;15.02;7.43;;;21.00;97.20;;;;;;4997624;28;20121;-50
2023/06/20 00:26:18;;;;;;;9.00;7.15;;;20.90;97.20;;;;;;5011204;28;20038;-51
2023/06/20 00:28:44;;;;;;;10.32;7.20;;;20.90;97.30;;;;;;5011747;28;20157;-46
2023/06/20 00:31:10;;;;;;;9.93;7.35;;;20.90;97.50;;;;;;5010977;28;20062;-50
2023/06/20 00:33:36;;;;;;;10.75;7.80;;;20.90;97.60;;;;;;5011355;28;20069;-49
2023/06/20 00:36:02;;;;;;;11.82;8.02;;;20.80;97.70;;;;;;5011232;28;20183;-49
2023/06/20 00:38:29;;;;;;;11.15;8.20;;;20.80;97.90;;;;;;5010711;28;20038;-49
2023/06/20 00:40:55;;;;;;;10.90;7.65;;;20.80;98.00;;;;;;5010856;28;20085;-48
2023/06/20 00:43:21;;;;;;;14.30;7.53;;;20.70;98.10;;;;;;5011040;28;20448;-51
2023/06/20 00:45:46;;;;;;;13.13;8.25;;;20.70;98.30;;;;;;5011359;28;20099;-51
2023/06/20 00:48:13;;;;;;;10.55;7.85;;;20.70;98.40;;;;;;5011310;28;20054;-50
2023/06/20 00:50:38;;;;;;;12.38;8.25;;;20.60;98.60;;;;;;5009191;28;20053;-52
2023/06/20 00:53:06;;;;;;;9.98;7.30;;;20.60;98.70;;;;;;4991239;28;20038;-49
2023/06/20 00:55:33;;;;;;;10.55;7.97;;;20.60;98.80;;;;;;4991175;28;20042;-49
2023/06/20 00:58:01;;;;;;;10.00;7.40;;;20.60;98.90;;;;;;4996599;28;20129;-49
2023/06/20 01:00:33;;;;;;;11.43;7.30;;;20.50;99.00;;;;;;5010590;28;20500;-51
2023/06/20 01:03:06;;;;;;;11.50;7.70;;;20.50;99.10;;;;;;4990225;28;20034;-46
2023/06/20 01:05:32;;;;;;;13.02;8.43;;;20.50;99.20;;;;;;4990986;28;20101;-48
2023/06/20 01:08:07;;;;;;;11.93;8.43;;;20.50;99.30;;;;;;4990755;28;20493;-50
2023/06/20 01:10:32;;;;;;;10.90;7.97;;;20.40;99.40;;;;;;5005641;28;20049;-50
2023/06/20 01:13:08;;;;;;;11.85;8.00;;;20.40;99.50;;;;;;4991256;28;20038;-50
2023/06/20 01:15:45;;;;;;;11.32;7.80;;;20.40;99.60;;;;;;4991192;28;20183;-46
2023/06/20 01:18:25;;;;;;;11.25;8.52;;;20.40;99.60;;;;;;4991070;28;20074;-52
2023/06/20 01:20:56;;;;;;;12.30;8.82;;;20.30;99.70;;;;;;4973390;28;20784;-49
2023/06/20 01:23:32;;;;;;;12.82;8.48;;;20.30;99.90;;;;;;5007238;28;20085;-51
2023/06/20 01:26:08;;;;;;;10.57;8.07;;;20.30;99.90;;;;;;5010405;28;20048;-47
2023/06/20 01:28:46;;;;;;;11.55;8.30;;;20.30;99.90;;;;;;4993321;28;20042;-49
2023/06/20 01:31:18;;;;;;;10.55;7.82;;;20.30;99.90;;;;;;4990498;28;20105;-49
2023/06/20 01:33:53;;;;;;;11.02;7.82;;;20.30;99.90;;;;;;5006258;28;20072;-49
2023/06/20 01:36:21;;;;;;;10.95;7.50;;;20.30;99.90;;;;;;5010108;28;20069;-49
2023/06/20 01:38:51;;;;;;;10.82;7.70;;;20.30;99.90;;;;;;5010178;28;20045;-50
2023/06/20 01:41:23;;;;;;;9.77;7.28;;;20.30;99.90;;;;;;5010018;28;20065;-47
2023/06/20 01:43:50;;;;;;;11.32;7.72;;;20.20;99.90;;;;;;5010322;28;20097;-48
2023/06/20 01:46:19;;;;;;;10.80;7.95;;;20.30;99.90;;;;;;4975980;28;20042;-47
2023/06/20 01:48:47;;;;;;;11.00;7.75;;;20.30;99.90;;;;;;4994998;28;20053;-50
2023/06/20 01:51:14;;;;;;;12.48;8.02;;;20.20;99.90;;;;;;5004331;28;20035;-50
2023/06/20 01:53:42;;;;;;;12.07;7.88;;;20.30;99.90;;;;;;5010014;28;20073;-45
2023/06/20 01:56:10;;;;;;;12.57;7.72;;;20.30;99.90;;;;;;5010240;28;20117;-48
2023/06/20 01:58:37;;;;;;;10.73;7.72;;;20.30;99.90;;;;;;5009973;28;20516;-50
2023/06/20 02:01:04;;;;;;;10.45;7.70;;;20.20;99.90;;;;;;4990606;28;20109;-51
2023/06/20 02:03:31;;;;;;;11.10;7.53;;;20.30;99.90;;;;;;4990749;28;20031;-50
2023/06/20 02:05:59;;;;;;;11.85;8.00;;;20.30;99.90;;;;;;4990425;28;20085;-50
2023/06/20 02:08:26;;;;;;;11.38;8.30;;;20.20;99.90;;;;;;4975999;28;20038;-48
2023/06/20 02:10:53;;;;;;;10.63;8.60;;;20.20;99.90;;;;;;4974383;28;20050;-48
2023/06/20 02:13:23;;;;;;;11.57;8.63;;;20.20;99.90;;;;;;4993558;28;20080;-51
2023/06/20 02:15:52;;;;;;;13.38;9.10;;;20.20;99.90;;;;;;4992675;28;20058;-49
2023/06/20 02:18:19;;;;;;;11.75;8.35;;;20.20;99.90;;;;;;4994070;28;20409;-47
2023/06/20 02:20:49;;;;;;;12.80;8.95;;;20.20;99.90;;;;;;4976419;28;20054;-50
2023/06/20 02:23:21;;;;;;;13.45;8.85;;;20.20;99.90;;;;;;4993991;28;20113;-51
2023/06/20 02:25:48;;;;;;;14.07;9.18;;;20.10;99.90;;;;;;4994113;28;20042;-50
2023/06/20 02:28:15;;;;;;;12.75;9.02;;;20.10;99.90;;;;;;4997887;28;20049;-48
2023/06/20 02:30:42;;;;;;;14.20;9.23;;;20.10;99.90;;;;;;4976761;28;20070;-48
2023/06/20 02:33:10;;;;;;;11.15;9.13;;;20.10;99.90;;;;;;4993890;28;20088;-51
2023/06/20 02:35:38;;;;;;;14.45;9.23;;;20.00;99.90;;;;;;4994136;28;20092;-52
2023/06/20 02:38:05;;;;;;;13.63;9.95;;;20.00;99.90;;;;;;4993388;28;20045;-51
2023/06/20 02:40:30;;;;;;;11.57;8.75;;;20.00;99.90;;;;;;4993740;28;20058;-51
2023/06/20 02:42:56;;;;;;;14.30;9.38;;;20.00;99.90;;;;;;4994012;28;20073;-51
2023/06/20 02:45:22;;;;;;;14.02;9.40;;;20.00;99.90;;;;;;5005727;28;20137;-51
2023/06/20 02:48:27;;;;;;;12.55;10.02;;;19.90;99.90;;;;;;5013247;28;20068;-45
2023/06/20 02:51:04;;;;;;;12.15;9.30;;;20.00;99.90;;;;;;4976092;28;20053;-49
2023/06/20 02:53:43;;;;;;;12.75;10.05;;;19.90;99.90;;;;;;5010739;28;20049;-48
2023/06/20 02:56:12;;;;;;;12.63;10.18;;;19.90;99.90;;;;;;4993473;28;20046;-51
2023/06/20 02:58:43;;;;;;;15.02;10.60;;;19.90;99.90;;;;;;4990904;28;20038;-50
2023/06/20 03:01:10;;;;;;;12.93;10.15;;;19.90;99.90;;;;;;5013066;28;20179;-51
2023/06/20 03:03:41;;;;;;;11.55;10.00;;;19.90;99.90;;;;;;5012859;28;20117;-51
2023/06/20 03:06:09;;;;;;;13.60;11.52;;;19.90;99.90;;;;;;5013134;28;20181;-50
2023/06/20 03:08:38;;;;;;;13.85;10.55;;;19.80;99.90;;;;;;4994729;28;20055;-49
2023/06/20 03:11:04;;;;;;;15.35;11.40;;;19.80;99.90;;;;;;5012556;28;20485;-48
2023/06/20 03:13:29;;;;;;;13.60;11.27;;;19.80;99.90;;;;;;5012850;28;20064;-47
2023/06/20 03:15:55;;;;;;;15.18;12.23;;;19.80;99.90;;;;;;4998491;28;20030;-50
2023/06/20 03:18:21;;;;;;;14.60;12.02;;;19.80;99.90;;;;;;4993288;28;20594;-50
2023/06/20 03:20:48;;;;;;;16.17;12.23;;;19.80;99.90;;;;;;4993122;28;20050;-49
2023/06/20 03:23:15;;;;;;;17.52;12.68;;;19.70;99.90;;;;;;4992579;28;20479;-48
2023/06/20 03:25:41;;;;;;;16.17;12.50;;;19.70;99.90;;;;;;4992698;28;20034;-50
2023/06/20 03:28:07;;;;;;;14.45;11.93;;;19.70;99.90;;;;;;4992447;28;20034;-48
2023/06/20 03:30:33;;;;;;;16.27;12.82;;;19.70;99.90;;;;;;4992924;28;20049;-52
2023/06/20 03:32:58;;;;;;;14.27;12.48;;;19.60;99.90;;;;;;4992877;28;20042;-45
2023/06/20 03:35:24;;;;;;;17.33;12.60;;;19.70;99.90;;;;;;4992664;28;20136;-48
2023/06/20 03:37:50;;;;;;;16.85;12.65;;;19.60;99.90;;;;;;4992382;28;20568;-49
2023/06/20 03:40:16;;;;;;;17.23;13.00;;;19.60;99.90;;;;;;4992571;28;20493;-51
2023/06/20 03:42:42;;;;;;;16.98;13.27;;;19.60;99.90;;;;;;4992799;28;20038;-50
2023/06/20 03:45:08;;;;;;;17.67;14.75;;;19.60;99.90;;;;;;4992620;28;20045;-51
2023/06/20 03:47:34;;;;;;;17.10;13.75;;;19.60;99.90;;;;;;4994347;28;20074;-47
2023/06/20 03:49:59;;;;;;;17.48;14.40;;;19.60;99.90;;;;;;5011757;28;20077;-49
2023/06/20 03:52:25;;;;;;;16.15;13.32;;;19.60;99.90;;;;;;4994371;28;20088;-51
2023/06/20 03:54:51;;;;;;;18.23;13.98;;;19.60;99.90;;;;;;5011968;28;20065;-48
2023/06/20 03:57:16;;;;;;;20.00;14.65;;;19.50;99.90;;;;;;5011977;28;20485;-53
2023/06/20 03:59:42;;;;;;;17.17;14.13;;;19.60;99.90;;;;;;5011905;28;20038;-52
2023/06/20 04:02:08;;;;;;;18.08;14.00;;;19.60;99.90;;;;;;4993048;28;20030;-51
2023/06/20 04:04:33;;;;;;;17.88;13.85;;;19.60;99.90;;;;;;4992765;28;20040;-49
2023/06/20 04:06:59;;;;;;;16.08;13.40;;;19.60;99.90;;;;;;4991943;28;20042;-47
2023/06/20 04:09:25;;;;;;;20.48;14.15;;;19.60;99.90;;;;;;4992291;28;20114;-50
2023/06/20 04:11:51;;;;;;;18.13;14.50;;;19.60;99.90;;;;;;4992299;28;20117;-49
2023/06/20 04:14:17;;;;;;;17.90;14.00;;;19.60;99.90;;;;;;4992298;28;20137;-49
2023/06/20 04:16:43;;;;;;;17.25;14.13;;;19.60;99.90;;;;;;4992008;28;20490;-50
2023/06/20 04:19:09;;;;;;;17.75;13.93;;;19.60;99.90;;;;;;4992397;28;20106;-49
2023/06/20 04:21:35;;;;;;;17.55;14.32;;;19.60;99.90;;;;;;4991601;28;20141;-48
2023/06/20 04:24:01;;;;;;;16.40;13.68;;;19.60;99.90;;;;;;4991910;28;20077;-49
2023/06/20 04:26:27;;;;;;;17.83;14.15;;;19.60;99.90;;;;;;4991970;28;20482;-49
2023/06/20 04:28:52;;;;;;;16.00;13.45;;;19.60;99.90;;;;;;4998904;28;20073;-51
2023/06/20 04:31:18;;;;;;;19.00;14.10;;;19.70;99.90;;;;;;5011732;28;20042;-51
2023/06/20 04:33:44;;;;;;;16.48;14.77;;;19.60;99.90;;;;;;5011230;28;20046;-52
2023/06/20 04:36:13;;;;;;;18.48;14.63;;;19.60;99.90;;;;;;5011210;28;20060;-47
2023/06/20 04:38:42;;;;;;;17.35;14.88;;;19.60;99.90;;;;;;5010525;28;20045;-52
2023/06/20 04:41:09;;;;;;;18.48;14.32;;;19.60;99.90;;;;;;5011037;28;20049;-50
2023/06/20 04:43:35;;;;;;;17.02;14.52;;;19.70;99.90;;;;;;5011178;28;20132;-49
2023/06/20 04:46:01;;;;;;;17.48;13.90;;;19.60;99.90;;;;;;5011173;28;20551;-51
2023/06/20 04:48:35;;;;;;;17.05;14.93;;;19.60;99.90;;;;;;5011080;28;20080;-50
2023/06/20 04:51:02;;;;;;;18.23;14.23;;;19.70;99.90;;;;;;4999688;28;20497;-51
2023/06/20 04:53:28;;;;;;;18.65;14.73;;;19.60;99.90;;;;;;4991603;28;20070;-51
2023/06/20 04:55:54;;;;;;;16.58;14.27;;;19.60;99.90;;;;;;4991464;28;20042;-48
2023/06/20 04:58:20;;;;;;;16.13;14.13;;;19.60;99.90;;;;;;5008850;28;20045;-49
2023/06/20 05:00:47;;;;;;;18.33;14.45;;;19.70;99.90;;;;;;5010644;28;20034;-50
2023/06/20 05:03:13;;;;;;;16.83;14.00;;;19.70;99.90;;;;;;5011316;28;20378;-52
2023/06/20 05:05:40;;;;;;;17.27;14.68;;;19.70;99.90;;;;;;5010676;28;20053;-47
2023/06/20 05:08:05;;;;;;;19.63;14.18;;;19.70;99.90;;;;;;5010754;28;20103;-48
2023/06/20 05:10:31;;;;;;;18.50;14.23;;;19.70;99.90;;;;;;4993202;28;20042;-49
2023/06/20 05:12:57;;;;;;;17.50;13.07;;;19.70;99.90;;;;;;5010610;28;20045;-48
2023/06/20 05:15:25;;;;;;;16.25;14.38;;;19.80;99.90;;;;;;5007278;28;20038;-51
2023/06/20 05:17:52;;;;;;;16.50;14.73;;;19.80;99.90;;;;;;5007592;28;20033;-50
2023/06/20 05:20:17;;;;;;;17.30;14.55;;;19.80;99.90;;;;;;5010629;28;20085;-51
2023/06/20 05:22:43;;;;;;;18.27;14.65;;;19.80;99.90;;;;;;5003548;28;20139;-48
2023/06/20 05:25:09;;;;;;;19.15;14.10;;;19.80;99.90;;;;;;4991432;28;20034;-51
2023/06/20 05:27:35;;;;;;;17.48;14.68;;;19.80;99.90;;;;;;4990806;28;20564;-51
2023/06/20 05:30:01;;;;;;;19.00;14.93;;;19.80;99.90;;;;;;4991161;28;20101;-47
2023/06/20 05:32:26;;;;;;;15.80;13.80;;;19.80;99.90;;;;;;4990972;28;20081;-51
2023/06/20 05:34:53;;;;;;;18.58;14.35;;;19.90;99.90;;;;;;4999501;28;20438;-49
2023/06/20 05:37:19;;;;;;;18.63;14.18;;;19.90;99.90;;;;;;5010336;28;20796;-49
2023/06/20 05:39:45;;;;;;;17.55;13.88;;;19.90;99.90;;;;;;5000903;28;20046;-46
2023/06/20 05:42:11;;;;;;;16.33;14.07;;;20.00;99.90;;;;;;4973338;28;20054;-49
2023/06/20 05:44:36;;;;;;;17.63;14.32;;;20.10;99.90;;;;;;4990759;28;20138;-47
2023/06/20 05:47:05;;;;;;;20.55;14.27;;;20.10;99.90;;;;;;4991841;28;20069;-50
2023/06/20 05:49:31;;;;;;;16.92;14.77;;;20.20;99.90;;;;;;4995053;28;20045;-51
2023/06/20 05:51:57;;;;;;;15.90;14.07;;;20.20;99.90;;;;;;4994770;28;20042;-48
2023/06/20 05:54:24;;;;;;;17.33;15.45;;;20.30;99.90;;;;;;5002915;28;20034;-50
2023/06/20 05:56:50;;;;;;;16.42;14.70;;;20.30;99.90;;;;;;5014212;28;20038;-48
2023/06/20 05:59:16;;;;;;;19.48;14.85;;;20.30;99.90;;;;;;5003768;28;20107;-51
2023/06/20 06:01:42;;;;;;;17.80;14.48;;;20.40;99.90;;;;;;4994362;28;20053;-49
2023/06/20 06:04:07;;;;;;;17.45;15.13;;;20.40;99.90;;;;;;4977394;28;20080;-50
2023/06/20 06:06:33;;;;;;;18.63;14.43;;;20.50;99.90;;;;;;4994783;28;20046;-49
2023/06/20 06:08:59;;;;;;;20.42;15.02;;;20.50;99.90;;;;;;4994471;28;20046;-50
2023/06/20 06:11:25;;;;;;;20.20;15.32;;;20.60;99.90;;;;;;5006288;28;20495;-49
2023/06/20 06:13:51;;;;;;;15.65;13.77;;;20.70;99.90;;;;;;5013692;28;20050;-48
2023/06/20 06:16:17;;;;;;;16.38;13.77;;;20.80;99.90;;;;;;5013752;28;20042;-50
2023/06/20 06:18:43;;;;;;;17.75;14.10;;;20.90;99.90;;;;;;4996562;28;20033;-50
2023/06/20 06:21:09;;;;;;;16.20;14.48;;;20.90;99.90;;;;;;5000945;28;20041;-50
2023/06/20 06:23:35;;;;;;;16.23;13.57;;;20.90;99.90;;;;;;4994379;28;20177;-51
2023/06/20 06:26:02;;;;;;;16.20;14.30;;;20.90;99.90;;;;;;4994401;28;20117;-51
2023/06/20 06:28:28;;;;;;;18.08;13.93;;;20.90;99.90;;;;;;4994426;28;20030;-50
2023/06/20 06:31:07;;;;;;;17.73;13.45;;;21.00;99.90;;;;;;5009064;28;20053;-47
2023/06/20 06:33:33;;;;;;;17.67;14.40;;;21.10;99.90;;;;;;5007222;28;20029;-49
2023/06/20 06:35:59;;;;;;;17.35;13.80;;;21.10;99.90;;;;;;5013533;28;20034;-49
2023/06/20 06:38:25;;;;;;;15.52;13.77;;;21.20;99.90;;;;;;5013265;28;20056;-52
2023/06/20 06:40:54;;;;;;;17.13;13.60;;;21.20;99.90;;;;;;5013481;28;20429;-49
2023/06/20 06:43:20;;;;;;;16.75;13.27;;;21.20;99.90;;;;;;5006054;28;20045;-50
2023/06/20 06:45:47;;;;;;;15.15;13.25;;;21.20;99.90;;;;;;5007379;28;20105;-49
2023/06/20 06:48:12;;;;;;;15.82;13.73;;;21.20;99.90;;;;;;5013664;28;20504;-51
2023/06/20 06:50:38;;;;;;;16.35;13.30;;;21.30;99.90;;;;;;4994350;28;20042;-48
2023/06/20 06:53:04;;;;;;;18.23;13.48;;;21.30;99.90;;;;;;5005092;28;20044;-50
2023/06/20 06:55:30;;;;;;;14.75;13.15;;;21.30;99.90;;;;;;5013646;28;20072;-51
2023/06/20 06:57:55;;;;;;;17.17;13.18;;;21.30;99.90;;;;;;5012708;28;20088;-49
2023/06/20 07:00:21;;;;;;;15.15;12.82;;;21.40;99.90;;;;;;5006035;28;20096;-50
2023/06/20 07:02:47;;;;;;;14.68;12.80;;;21.50;99.90;;;;;;4994044;28;20417;-47
2023/06/20 07:05:12;;;;;;;16.23;13.25;;;21.50;99.90;;;;;;4993675;28;20481;-51
2023/06/20 07:07:38;;;;;;;16.73;14.18;;;21.60;99.90;;;;;;4993471;28;20478;-49
2023/06/20 07:10:04;;;;;;;13.88;12.35;;;21.60;99.90;;;;;;5003321;28;20039;-52
2023/06/20 07:12:31;;;;;;;15.50;12.75;;;21.60;99.90;;;;;;4992195;28;20042;-49
2023/06/20 07:14:56;;;;;;;15.20;12.98;;;21.60;99.90;;;;;;5013155;28;20071;-49
2023/06/20 07:17:23;;;;;;;16.90;12.43;;;21.60;99.90;;;;;;4999585;28;20057;-48
2023/06/20 07:19:49;;;;;;;14.38;12.57;;;21.70;99.90;;;;;;4993625;28;20133;-49
2023/06/20 07:22:15;;;;;;;13.88;12.40;;;21.70;99.90;;;;;;4993276;28;20046;-51
2023/06/20 07:24:41;;;;;;;14.05;12.55;;;21.70;99.90;;;;;;4993272;28;20482;-53
2023/06/20 07:27:07;;;;;;;13.40;12.00;;;21.70;99.90;;;;;;4993189;28;20448;-49
2023/06/20 07:29:32;;;;;;;14.70;13.00;;;21.70;99.90;;;;;;4993025;28;20034;-48
2023/06/20 07:31:58;;;;;;;15.95;12.73;;;21.80;99.90;;;;;;4993316;28;20042;-49
2023/06/20 07:34:23;;;;;;;13.98;12.48;;;21.80;99.90;;;;;;5005213;28;20123;-51
2023/06/20 07:36:49;;;;;;;17.30;12.77;;;21.90;99.90;;;;;;5000638;28;20043;-49
2023/06/20 07:39:15;;;;;;;14.02;12.52;;;21.90;99.90;;;;;;4992927;28;20053;-51
2023/06/20 07:41:40;;;;;;;15.60;12.73;;;22.00;99.90;;;;;;4974988;28;20051;-50
2023/06/20 07:44:08;;;;;;;16.88;12.43;;;22.00;99.90;;;;;;4993049;28;20121;-48
2023/06/20 07:46:33;;;;;;;15.73;12.88;;;22.10;99.90;;;;;;4992557;28;20070;-50
2023/06/20 07:48:59;;;;;;;14.90;12.32;;;22.10;99.90;;;;;;4993016;28;20114;-48
2023/06/20 07:51:25;;;;;;;14.27;12.30;;;22.10;99.90;;;;;;4994843;28;20085;-52
2023/06/20 07:53:50;;;;;;;13.43;11.88;;;22.20;99.90;;;;;;5012075;28;20034;-50
2023/06/20 07:56:16;;;;;;;14.60;12.23;;;22.20;99.90;;;;;;5012509;28;20057;-53
2023/06/20 07:58:44;;;;;;;14.48;12.60;;;22.20;99.90;;;;;;5012071;28;20042;-51
2023/06/20 08:01:12;;;;;;;13.82;11.98;;;22.20;99.90;;;;;;5004265;28;20055;-47
2023/06/20 08:03:38;;;;;;;14.20;12.55;;;22.20;99.90;;;;;;5010493;28;20154;-49
2023/06/20 08:06:04;;;;;;;13.38;11.98;;;22.30;99.90;;;;;;4992483;28;20048;-53
2023/06/20 08:08:29;;;;;;;15.43;12.18;;;22.30;99.90;;;;;;4997268;28;20358;-51
2023/06/20 08:10:55;;;;;;;14.65;12.27;;;22.40;99.90;;;;;;5010847;28;20042;-52
2023/06/20 08:13:21;;;;;;;14.35;12.40;;;22.50;99.90;;;;;;5011773;28;20427;-50
2023/06/20 08:15:47;;;;;;;17.33;12.90;;;22.60;99.90;;;;;;5011766;28;20132;-48
2023/06/20 08:18:12;;;;;;;15.98;13.00;;;22.60;99.90;;;;;;5006064;28;20038;-51
2023/06/20 08:20:38;;;;;;;15.43;12.52;;;22.60;99.90;;;;;;4991960;28;20074;-49
2023/06/20 08:23:04;;;;;;;15.88;11.73;;;22.50;99.90;;;;;;4995259;28;20042;-51
2023/06/20 08:25:29;;;;;;;13.05;11.68;;;22.60;99.90;;;;;;5011379;28;20030;-50
2023/06/20 08:27:55;;;;;;;17.42;11.60;;;22.60;99.90;;;;;;5002048;28;20042;-51
2023/06/20 08:30:20;;;;;;;15.07;12.52;;;22.60;99.90;;;;;;4991774;28;20046;-46
2023/06/20 08:32:47;;;;;;;16.38;12.73;;;22.70;99.90;;;;;;4998253;28;20037;-51
2023/06/20 08:35:13;;;;;;;15.32;12.95;;;22.70;99.90;;;;;;5011579;28;20047;-48
2023/06/20 08:37:41;;;;;;;19.50;13.55;;;22.80;99.90;;;;;;5003766;28;20555;-53
2023/06/20 08:40:10;;;;;;;16.65;12.68;;;22.90;99.90;;;;;;4974278;28;20121;-49
2023/06/20 08:42:36;;;;;;;17.17;13.13;;;23.10;99.90;;;;;;4991605;28;20054;-52
2023/06/20 08:45:02;;;;;;;16.90;13.80;;;23.10;99.90;;;;;;4991957;28;20567;-50
2023/06/20 08:47:28;;;;;;;14.88;13.00;;;23.20;99.90;;;;;;4992216;28;20067;-48
2023/06/20 08:49:54;;;;;;;14.35;12.63;;;23.10;99.90;;;;;;5011296;28;20211;-49
2023/06/20 08:52:28;;;;;;;14.32;12.82;;;23.20;99.90;;;;;;5006194;28;20488;-50
2023/06/20 08:54:55;;;;;;;14.95;13.35;;;23.30;99.90;;;;;;4991714;28;20129;-48
2023/06/20 08:57:21;;;;;;;15.63;13.50;;;23.40;99.90;;;;;;4991246;28;20113;-51
2023/06/20 08:59:48;;;;;;;15.20;12.50;;;23.50;99.90;;;;;;4991709;28;20038;-49
2023/06/20 09:02:13;;;;;;;19.00;12.65;;;23.60;99.90;;;;;;4997827;28;20045;-48
2023/06/20 09:04:39;;;;;;;15.75;12.38;;;23.70;99.90;;;;;;4975345;28;20378;-48
2023/06/20 09:07:17;;;;;;;15.70;12.05;;;23.90;99.90;;;;;;4990537;28;20390;-49
2023/06/20 09:09:43;;;;;;;14.45;12.15;;;24.00;99.90;;;;;;4990183;28;20623;-49
2023/06/20 09:12:09;;;;;;;14.93;12.63;;;24.10;99.90;;;;;;4991353;28;20393;-51
2023/06/20 09:14:34;;;;;;;14.27;12.77;;;24.20;99.90;;;;;;4991018;28;20030;-51
2023/06/20 09:17:00;;;;;;;15.20;11.50;;;24.40;99.90;;;;;;4991255;28;20041;-49
2023/06/20 09:19:26;;;;;;;14.20;11.30;;;24.60;99.90;;;;;;4991198;28;20034;-52
2023/06/20 09:22:02;;;;;;;12.57;10.43;;;24.70;99.90;;;;;;4996104;28;20370;-49
2023/06/20 09:24:27;;;;;;;13.48;11.05;;;24.90;99.90;;;;;;4990845;28;20034;-48
2023/06/20 09:26:53;;;;;;;13.25;10.88;;;25.10;99.90;;;;;;4991154;28;20532;-51
2023/06/20 09:29:19;;;;;;;14.30;11.00;;;25.30;99.90;;;;;;4991344;28;20481;-52
2023/06/20 09:31:49;;;;;;;12.80;11.45;;;25.50;99.90;;;;;;4991056;28;20035;-51
2023/06/20 09:34:18;;;;;;;12.45;10.40;;;25.60;99.90;;;;;;4991112;28;20038;-49
2023/06/20 09:36:47;;;;;;;14.40;10.55;;;25.80;99.90;;;;;;5009734;28;20523;-49
2023/06/20 09:39:20;;;;;;;13.00;10.40;;;25.90;99.90;;;;;;5009994;28;20046;-49
2023/06/20 09:41:50;;;;;;;11.52;9.95;;;26.10;99.90;;;;;;5010062;28;20120;-50
2023/06/20 09:44:20;;;;;;;14.23;10.48;;;26.30;99.90;;;;;;5010434;28;20404;-48
2023/06/20 09:46:46;;;;;;;13.60;10.35;;;26.40;99.90;;;;;;5010515;28;20040;-52
2023/06/20 09:49:14;;;;;;;13.68;10.15;;;26.60;99.90;;;;;;5010316;28;20100;-52
2023/06/20 09:51:54;;;;;;;13.13;9.77;;;26.70;99.90;;;;;;5010675;28;20486;-51
2023/06/20 09:54:32;;;;;;;11.18;9.63;;;26.80;99.90;;;;;;5010186;28;20037;-47
2023/06/20 09:57:04;;;;;;;10.98;9.70;;;26.90;99.90;;;;;;4992183;28;20049;-49
2023/06/20 09:59:32;;;;;;;13.00;8.60;;;27.00;99.90;;;;;;5010146;28;20038;-50
2023/06/20 10:01:59;;;;;;;8.00;6.65;;;27.10;99.90;;;;;;4992400;28;20045;-48
2023/06/20 10:04:27;;;;;;;9.38;6.20;;;27.10;99.90;;;;;;4992592;28;20044;-48
2023/06/20 10:06:55;;;;;;;9.45;6.50;;;27.20;99.70;;;;;;5010098;28;20045;-51
2023/06/20 10:09:21;;;;;;;7.45;6.07;;;27.30;98.90;;;;;;5010087;28;20077;-47
2023/06/20 10:11:47;;;;;;;9.32;6.38;;;27.40;98.70;;;;;;5010192;28;20445;-50
2023/06/20 10:14:14;;;;;;;9.20;5.50;;;27.50;98.40;;;;;;4992349;28;20084;-49
2023/06/20 10:16:50;;;;;;;7.50;5.68;;;27.60;98.40;;;;;;5009850;28;20037;-49
2023/06/20 10:19:17;;;;;;;10.23;5.38;;;27.80;98.30;;;;;;4991433;28;20057;-49
2023/06/20 10:22:00;;;;;;;8.07;5.03;;;27.90;97.80;;;;;;4990663;28;20039;-47
2023/06/20 10:24:30;;;;;;;6.43;5.20;;;28.00;97.60;;;;;;4990726;28;20030;-47
2023/06/20 10:27:03;;;;;;;9.23;5.65;;;28.10;97.30;;;;;;4990357;28;20027;-49
2023/06/20 10:29:29;;;;;;;8.03;7.13;;;28.10;96.90;;;;;;4996421;28;20042;-47
2023/06/20 10:32:05;;;;;;;9.25;6.13;;;28.10;96.50;;;;;;5000779;28;20280;-47
2023/06/20 10:34:36;;;;;;;8.82;6.07;;;28.10;96.50;;;;;;4993634;28;20034;-47
2023/06/20 10:37:24;;;;;;;8.07;5.20;;;28.10;96.30;;;;;;4997766;28;20036;-50
2023/06/20 10:39:52;;;;;;;9.63;5.63;;;28.20;95.90;;;;;;4983584;28;20101;-49
2023/06/20 10:42:50;;;;;;;8.45;5.68;;;28.30;96.10;;;;;;4993713;28;20050;-48
2023/06/20 10:45:23;;;;;;;7.85;5.47;;;28.30;95.60;;;;;;4940123;28;20062;-51
2023/06/20 10:47:50;;;;;;;8.05;4.78;;;28.20;95.20;;;;;;4994239;28;20117;-47
2023/06/20 10:50:16;;;;;;;6.43;4.95;;;28.10;95.30;;;;;;4993647;28;20050;-50
2023/06/20 10:52:42;;;;;;;7.68;4.35;;;28.20;95.70;;;;;;4993757;28;20046;-50
2023/06/20 10:55:16;;;;;;;7.35;5.28;;;28.40;95.30;;;;;;4993726;28;20429;-47
2023/06/20 10:57:50;;;;;;;8.82;5.78;;;28.60;94.80;;;;;;4995855;28;20489;-51
2023/06/20 11:00:18;;;;;;;6.90;5.45;;;28.50;94.50;;;;;;4995547;28;20061;-43
2023/06/20 11:02:51;;;;;;;8.43;5.97;;;28.50;95.00;;;;;;5013217;28;20065;-51
2023/06/20 11:05:17;;;;;;;9.82;5.80;;;28.40;95.20;;;;;;5012795;28;20042;-45
2023/06/20 11:07:52;;;;;;;8.65;6.40;;;28.20;94.80;;;;;;4996790;28;20087;-46
2023/06/20 11:10:20;;;;;;;7.70;5.80;;;28.40;95.40;;;;;;4993140;28;20128;-50
2023/06/20 11:12:46;;;;;;;7.85;5.57;;;28.60;95.20;;;;;;4993585;28;20034;-49
2023/06/20 11:15:20;;;;;;;7.20;5.10;;;28.90;95.30;;;;;;4975395;28;20089;-50
2023/06/20 11:17:45;;;;;;;6.72;4.60;;;29.20;95.20;;;;;;4993537;28;20442;-50
2023/06/20 11:20:11;;;;;;;6.53;4.70;;;29.40;93.80;;;;;;5005700;28;20069;-50
2023/06/20 11:22:37;;;;;;;6.60;4.15;;;29.50;93.40;;;;;;5012826;28;20045;-46
2023/06/20 11:25:04;;;;;;;6.07;4.50;;;29.60;93.50;;;;;;4995101;28;20077;-52
2023/06/20 11:27:29;;;;;;;5.55;4.00;;;29.70;92.80;;;;;;4997340;28;20038;-50
2023/06/20 11:29:55;;;;;;;7.10;4.10;;;29.60;92.50;;;;;;5009868;28;20111;-52
2023/06/20 11:32:21;;;;;;;6.57;4.00;;;29.50;92.80;;;;;;5012449;28;20121;-50
2023/06/20 11:35:02;;;;;;;7.15;3.70;;;29.60;93.00;;;;;;5004207;28;20049;-47
2023/06/20 11:37:28;;;;;;;6.50;3.90;;;29.70;92.90;;;;;;4991915;28;20314;-50
2023/06/20 11:39:55;;;;;;;5.78;3.63;;;29.80;93.10;;;;;;5002380;28;20033;-51
2023/06/20 11:42:21;;;;;;;5.57;3.63;;;29.90;92.70;;;;;;5003324;28;20042;-46
2023/06/20 11:44:47;;;;;;;6.35;3.70;;;29.80;92.20;;;;;;4992568;28;20085;-45
2023/06/20 11:47:13;;;;;;;8.27;4.10;;;29.80;92.50;;;;;;5004184;28;20037;-47
2023/06/20 11:49:42;;;;;;;5.43;3.95;;;29.70;92.90;;;;;;5012434;28;20081;-48
2023/06/20 11:52:09;;;;;;;5.78;4.00;;;29.80;92.90;;;;;;5009448;28;20113;-48
2023/06/20 11:54:48;;;;;;;6.55;4.15;;;29.60;92.80;;;;;;5012363;28;20520;-46
2023/06/20 11:57:26;;;;;;;8.35;4.63;;;29.40;92.80;;;;;;5011823;28;20072;-49
2023/06/20 11:59:55;;;;;;;8.32;4.28;;;29.30;92.90;;;;;;5011861;28;20153;-48
2023/06/20 12:02:24;;;;;;;5.65;4.28;;;29.20;92.90;;;;;;4994747;28;20068;-46
2023/06/20 12:04:57;;;;;;;7.20;4.25;;;29.30;93.00;;;;;;4994287;28;20038;-46
2023/06/20 12:07:25;;;;;;;5.95;4.28;;;29.50;92.80;;;;;;5011287;28;20033;-50
2023/06/20 12:09:51;;;;;;;5.38;3.58;;;29.50;92.60;;;;;;5012072;28;20443;-49
2023/06/20 12:12:17;;;;;;;7.40;4.15;;;29.60;92.50;;;;;;4971254;28;20136;-48
2023/06/20 12:14:47;;;;;;;5.53;4.05;;;29.70;92.50;;;;;;5011811;28;20172;-49
2023/06/20 12:17:13;;;;;;;7.57;4.05;;;29.70;92.70;;;;;;4993460;28;20042;-50
2023/06/20 12:19:52;;;;;;;5.70;4.60;;;29.50;92.70;;;;;;4992409;28;20439;-50
2023/06/20 12:22:19;;;;;;;6.00;4.57;;;29.60;93.10;;;;;;4997579;28;20112;-49
2023/06/20 12:24:45;;;;;;;7.20;4.38;;;29.70;92.80;;;;;;5011838;28;20034;-50
2023/06/20 12:27:11;;;;;;;7.88;4.68;;;29.70;92.80;;;;;;5011697;28;20544;-50
2023/06/20 12:29:37;;;;;;;6.93;4.22;;;29.70;92.50;;;;;;5011092;28;20072;-48
2023/06/20 12:32:04;;;;;;;6.18;4.50;;;29.60;92.20;;;;;;4997808;28;20034;-48
2023/06/20 12:34:29;;;;;;;7.13;4.47;;;29.60;92.70;;;;;;4991759;28;20038;-48
2023/06/20 12:36:55;;;;;;;12.60;5.65;;;29.60;93.00;;;;;;4991772;28;20038;-50